Milwaukee, WI (53201)

4:26 PM CDT on April 30, 2017 (GMT -0500)
Sailing Center | | Change Station

Elev 594 ft 43.05 °N, 87.89 °W | Updated 55 seconds ago

Overcast
Overcast
41.4 °F
Feels Like 32 °F
N
19.9
Wind Variable Wind from NE
Gusts 24.8 mph

Today
High -- | Low -- °F
--% Chance of Precip.
Yesterday
High -- | Low -- °F
Precip. -- in
Pressure 29.86 in
Visibility 1.2 miles
Clouds Overcast 300 ft
Windchill 32 °F
Dew Point 41 °F
Humidity 98%
Rainfall 0.00 in
Snow Depth Not available.
5:46 AM 7:51 PM
Waxing Crescent, 26% visible
METAR KMKE 302052Z 03015G24KT 1 1/4SM OVC003 06/04 A2984 RMK AO2 PK WND 03027/2005 SFC VIS 10 DZE07 SLP111 P0000 60007 T00560044 56014
Pressure 29.86 in
Visibility 1.2 miles
Clouds Overcast 300 ft
Windchill 32 °F
Dew Point 41 °F
Humidity 98%
Rainfall 0.00 in
Snow Depth Not available.
5:46 AM 7:51 PM
Waxing Crescent, 26% visible
METAR KMKE 302052Z 03015G24KT 1 1/4SM OVC003 06/04 A2984 RMK AO2 PK WND 03027/2005 SFC VIS 10 DZE07 SLP111 P0000 60007 T00560044 56014

Get Severe Weather Alerts

Thanks for signing up!

Be on the lookout for a verification email in your inbox.

You'll start receiving the daily forecast at 8 AM.

×

10-Day Weather Forecast

Almanac

Astronomy

Apr. 30, 2017 Rise Set
Actual Time
Civil Twilight
Nautical Twilight
Astronomical Twilight
Moon
Length of Visible Light
Length of Day
Tomorrow will be .
, % of the Moon is Illuminated

Today's Extremes

State Highs State Lows

Community

WunderPhotos

WunderBlog® & News

Nearby

Air Quality

  Air Quality AQ Index Pollutant
Not available.

Snow Depth

Station Depth Elevation

Earthquake Activity

City Distance Mag. Time & Date
Minimum magnitude displayed is 2.5.

Coastal Water Temperatures

Place Temperature

Stations

Nearby Weather Stations

Station Location Temp. Windchill Dew Point Humidity Wind Precip. Elev Updated Type
                   

Watches & Warnings

There are currently no watches in effect.